This is the latest recevied weather packets stored in our database for station/object OE3CJB-13. If no packets are shown the sender has not sent any weather packets the latest 1 day(s).
| Time | Temp. | Humidity | Pressure | Rain* | Wind** | Luminosity | Snow |
|---|---|---|---|---|---|---|---|
| 1778089530 | 22.78° C | 16% | 807.4 hPa | 0 mm | - | - | - |
| 1778087756 | 23.33° C | 14% | 805.2 hPa | 0 mm | - | - | - |
| 1778085931 | 24.44° C | 12% | 799.8 hPa | 0 mm | - | - | - |
| 1778082331 | 25.56° C | - | 795.4 hPa | 0 mm | - | - | - |
| 1778081467 | 26.11° C | - | 796.2 hPa | 0 mm | - | - | - |
| 1778080556 | 26.67° C | - | 796.9 hPa | 0 mm | - | - | - |
| 1778078731 | 27.22° C | - | 796.9 hPa | 0 mm | - | - | - |
| 1778076045 | 27.78° C | - | 800 hPa | 0 mm | - | - | - |
| 1778071531 | 28.33° C | - | 799.5 hPa | 0 mm | - | - | - |
| 1778067115 | 26.11° C | 16% | 799 hPa | 0 mm | - | - | - |
| 1778066202 | 25.56° C | 17% | 799.2 hPa | 0 mm | - | - | - |
| 1778062555 | 25.56° C | 20% | 798 hPa | 0 mm | - | - | - |
| 1778061645 | 25° C | 20% | 798.1 hPa | 0 mm | - | - | - |
| 1778058954 | 23.33° C | 26% | 797 hPa | 0 mm | - | - | - |
| 1778054446 | 21.11° C | 39% | 795.8 hPa | 0 mm | - | - | - |
| 1778052618 | 20° C | 43% | 795.9 hPa | 0 mm | - | - | - |
| 1778051754 | 19.44° C | 45% | 794.4 hPa | 0 mm | - | - | - |
| 1778049018 | 18.33° C | 48% | 791.5 hPa | 0 mm | - | - | - |
| 1778048154 | 18.89° C | 50% | 790.9 hPa | 0 mm | - | - | - |
| 1778047245 | 17.78° C | 59% | 790.1 hPa | 0 mm | - | - | - |
| 1778046331 | 16.67° C | 61% | 787.9 hPa | 0 mm | - | - | - |
| 1778045418 | 16.11° C | 64% | 787.1 hPa | 0 mm | - | - | - |
| 1778044554 | 15.56° C | 66% | 785.6 hPa | 0 mm | - | - | - |
| 1778043645 | 15° C | 66% | 786.4 hPa | 0 mm | - | - | - |
| 1778042730 | 15° C | 66% | 787.2 hPa | 0 mm | - | - | - |
* Rain latest hour (hover to see other rain measurements)
** Current wind speed in m/s (hover to see current wind gust speed)